Time;durP1;ratioP1;P1;durP2;ratioP2;P2;SDS_P1;SDS_P2;PMS_P1;PMS_P2;Temp;Humidity;BMP_temperature;BMP_pressure;BME280_temperature;BME280_humidity;BME280_pressure;Samples;Min_cycle;Max_cycle;Signal;HPM_P1;HPM_P2
2022/03/27 00:01:15;;;;;;;;;42.25;30.25;;;;;17.31;34.10;102349.09;5057877;28;45422;-77
2022/03/27 00:03:40;;;;;;;;;39.25;32.00;;;;;17.27;33.87;102348.34;5037988;28;45561;-77
2022/03/27 00:06:06;;;;;;;;;39.75;32.50;;;;;17.08;34.33;102331.22;5057001;28;45389;-77
2022/03/27 00:08:31;;;;;;;;;46.00;33.75;;;;;17.07;34.25;102332.19;5056862;28;45342;-76
2022/03/27 00:13:41;;;;;;;;;39.50;30.50;;;;;17.10;34.38;102356.41;5057199;28;45410;-78
2022/03/27 00:16:06;;;;;;;;;36.00;22.00;;;;;17.08;34.39;102361.03;5056677;28;45629;-79
2022/03/27 00:18:33;;;;;;;;;41.00;31.75;;;;;16.98;34.56;102343.44;5057328;28;46149;-76
2022/03/27 00:20:58;;;;;;;;;40.25;33.75;;;;;17.01;34.83;102354.16;5035379;28;45403;-76
2022/03/27 00:23:24;;;;;;;;;36.00;29.00;;;;;16.89;35.16;102347.47;5050134;28;45551;-77
2022/03/27 00:25:50;;;;;;;;;35.25;27.50;;;;;16.78;34.81;102325.41;5056595;28;45544;-76
2022/03/27 00:28:16;;;;;;;;;39.00;31.25;;;;;16.87;35.26;102353.91;5056611;28;45256;-78
2022/03/27 04:30:17;;;;;;;;;43.25;30.25;;;;;14.79;41.78;102316.78;5056922;27;45705;-77
2022/03/27 04:32:43;;;;;;;;;32.00;28.25;;;;;14.54;41.73;102293.44;5016058;28;45262;-78
2022/03/27 04:35:09;;;;;;;;;36.50;29.75;;;;;14.70;41.88;102320.72;5015514;28;45993;-77
2022/03/27 04:37:41;;;;;;;;;37.25;33.75;;;;;14.66;41.71;102314.53;5016054;28;45629;-76
2022/03/27 04:40:09;;;;;;;;;34.25;30.75;;;;;14.59;41.58;102306.75;5016746;28;45436;-77
2022/03/27 04:42:34;;;;;;;;;28.25;27.00;;;;;14.65;41.80;102326.28;5016538;28;45282;-75
2022/03/27 04:44:59;;;;;;;;;33.25;24.75;;;;;14.63;42.10;102327.28;5015737;28;45366;-77
2022/03/27 04:47:25;;;;;;;;;31.25;27.50;;;;;14.55;42.18;102313.19;5017724;28;45311;-78
2022/03/27 04:49:50;;;;;;;;;29.00;27.75;;;;;14.61;41.58;102324.66;5036412;28;45330;-78
2022/03/27 04:52:16;;;;;;;;;28.00;26.25;;;;;14.59;41.97;102320.22;5035967;28;45319;-78
2022/03/27 04:54:42;;;;;;;;;37.50;24.25;;;;;14.44;41.71;102289.31;5036273;28;46302;-75
2022/03/27 04:57:07;;;;;;;;;31.00;28.50;;;;;14.57;41.65;102316.72;5036281;28;45222;-77
2022/03/27 04:59:33;;;;;;;;;34.00;26.25;;;;;14.59;41.84;102320.22;5036642;28;45692;-76
2022/03/27 05:01:59;;;;;;;;;34.50;30.00;;;;;14.60;41.69;102325.59;5036690;28;45395;-75
2022/03/27 05:04:25;;;;;;;;;36.00;30.25;;;;;14.54;41.73;102317.72;5036027;28;46195;-78
2022/03/27 05:06:51;;;;;;;;;31.00;24.25;;;;;14.58;41.72;102323.88;5035741;28;45452;-77
2022/03/27 05:09:18;;;;;;;;;29.25;26.75;;;;;14.57;41.97;102330.19;5035933;28;45297;-76
2022/03/27 05:11:43;;;;;;;;;31.75;25.25;;;;;14.57;42.20;102332.91;5035465;28;46477;-76
2022/03/27 05:14:09;;;;;;;;;17.00;11.25;;;;;14.57;42.26;102335.59;5035517;28;46351;-76
2022/03/27 05:16:34;;;;;;;;;36.00;29.75;;;;;14.48;42.47;102325.13;5035610;28;45395;-76
2022/03/27 05:18:59;;;;;;;;;29.50;24.25;;;;;14.48;42.49;102331.41;5035669;28;45314;-77
2022/03/27 05:21:25;;;;;;;;;29.25;27.00;;;;;14.50;41.88;102332.25;5034316;28;45664;-77
2022/03/27 05:23:51;;;;;;;;;28.75;27.25;;;;;14.45;41.81;102328.84;5035705;28;45482;-76
2022/03/27 05:26:17;;;;;;;;;32.25;27.75;;;;;14.52;42.13;102346.56;5035608;28;45470;-77
2022/03/27 05:28:42;;;;;;;;;27.00;26.25;;;;;14.43;42.41;102344.22;5017440;28;45340;-77
2022/03/27 05:31:09;;;;;;;;;28.25;26.00;;;;;14.35;42.36;102325.56;5042423;28;45351;-76
2022/03/27 05:33:38;;;;;;;;;27.50;24.25;;;;;14.37;42.36;102328.22;5055857;28;46279;-76
2022/03/27 05:36:08;;;;;;;;;31.00;27.50;;;;;14.30;42.50;102322.16;5055509;28;45374;-76
2022/03/27 05:38:34;;;;;;;;;28.50;25.50;;;;;14.28;42.75;102313.25;5037802;28;45529;-78
2022/03/27 05:41:01;;;;;;;;;33.25;29.00;;;;;14.43;42.73;102349.59;5055417;28;45473;-74
2022/03/27 05:43:27;;;;;;;;;28.75;26.50;;;;;14.35;42.85;102332.78;5055997;28;45442;-77
2022/03/27 05:45:53;;;;;;;;;30.00;27.00;;;;;14.32;42.26;102344.56;5056044;28;45362;-76
2022/03/27 05:48:19;;;;;;;;;27.75;24.75;;;;;14.29;42.73;102338.41;5033741;28;45336;-77
2022/03/27 05:50:44;;;;;;;;;32.25;27.25;;;;;14.36;42.64;102354.31;5046864;28;45516;-75
2022/03/27 05:53:11;;;;;;;;;35.00;26.00;;;;;14.33;42.58;102351.72;5055222;28;46502;-76
2022/03/27 05:55:36;;;;;;;;;29.25;24.75;;;;;14.34;42.63;102345.41;5055435;28;45470;-77
2022/03/27 05:58:01;;;;;;;;;28.50;24.25;;;;;14.30;43.42;102348.25;5055057;28;45531;-77
2022/03/27 06:00:27;;;;;;;;;35.00;28.00;;;;;14.03;43.32;102301.59;5055247;28;45374;-77
2022/03/27 06:02:53;;;;;;;;;29.25;26.00;;;;;14.12;43.00;102311.16;5055092;28;46927;-78
2022/03/27 06:05:22;;;;;;;;;33.25;25.50;;;;;14.15;43.04;102328.09;5054664;28;45412;-74
2022/03/27 06:07:50;;;;;;;;;31.75;26.00;;;;;14.27;43.23;102349.25;5055095;28;45669;-77
2022/03/27 06:10:19;;;;;;;;;25.00;18.50;;;;;14.35;43.04;102363.34;5055131;28;45330;-77
2022/03/27 06:12:45;;;;;;;;;32.50;24.75;;;;;14.33;43.32;102370.59;5055018;28;45327;-77
2022/03/27 06:15:12;;;;;;;;;25.75;23.25;;;;;14.34;42.96;102363.41;5055072;28;45477;-78
2022/03/27 06:17:46;;;;;;;;;33.50;27.00;;;;;14.38;43.05;102367.72;5054199;28;45268;-76
2022/03/27 06:20:14;;;;;;;;;32.00;27.00;;;;;14.39;42.78;102364.13;5054875;28;45546;-76
2022/03/27 06:22:40;;;;;;;;;35.00;28.00;;;;;14.38;42.86;102370.44;5055491;28;45385;-77
2022/03/27 06:25:08;;;;;;;;;27.75;25.50;;;;;14.37;42.69;102366.00;5055541;28;45618;-77
2022/03/27 06:27:33;;;;;;;;;34.50;23.00;;;;;14.28;42.81;102355.53;5054958;28;45508;-79
2022/03/27 06:29:59;;;;;;;;;28.00;26.50;;;;;14.34;42.65;102366.97;5034186;28;45546;-78
2022/03/27 06:32:26;;;;;;;;;31.25;30.00;;;;;14.25;42.82;102347.53;5054242;28;45370;-75
2022/03/27 06:34:56;;;;;;;;;32.75;28.25;;;;;14.38;42.65;102370.44;5054910;28;45282;-77
2022/03/27 06:37:22;;;;;;;;;35.00;25.25;;;;;14.38;43.10;102379.44;5054696;28;45271;-77
2022/03/27 06:39:48;;;;;;;;;32.75;29.25;;;;;14.38;42.83;102378.53;5054519;28;45442;-75
2022/03/27 06:42:14;;;;;;;;;33.75;31.25;;;;;14.36;43.10;102372.31;5054648;28;46045;-76
2022/03/27 06:44:39;;;;;;;;;31.00;28.25;;;;;14.35;43.12;102366.03;5054333;28;46445;-76
2022/03/27 06:47:06;;;;;;;;;25.50;21.50;;;;;14.39;42.98;102374.94;5054651;28;45485;-76
2022/03/27 06:49:32;;;;;;;;;39.50;31.50;;;;;14.36;42.76;102369.63;5054445;28;45414;-78
2022/03/27 06:51:57;;;;;;;;;35.00;26.00;;;;;14.36;43.25;102367.81;5054241;28;46104;-76
2022/03/27 06:54:23;;;;;;;;;28.75;24.25;;;;;14.38;43.11;102368.66;5036164;28;45445;-76
2022/03/27 06:56:48;;;;;;;;;33.00;29.00;;;;;14.32;43.19;102358.06;5054441;28;45321;-78
2022/03/27 06:59:14;;;;;;;;;39.00;30.75;;;;;14.43;43.01;102375.72;5054299;28;45313;-75
2022/03/27 07:04:23;;;;;;;;;30.50;28.00;;;;;14.48;43.32;102380.00;5054373;28;45395;-74
2022/03/27 07:06:48;;;;;;;;;36.00;29.25;;;;;14.51;43.24;102376.31;5054202;28;45330;-73
2022/03/27 07:09:14;;;;;;;;;32.00;23.75;;;;;14.50;42.71;102370.03;5054298;28;45239;-73
2022/03/27 07:11:39;;;;;;;;;38.75;29.50;;;;;14.56;42.87;102371.63;5054378;28;45727;-74
2022/03/27 07:14:04;;;;;;;;;27.50;23.50;;;;;14.62;43.19;102375.00;5054273;28;45420;-74
2022/03/27 07:16:31;;;;;;;;;31.50;29.00;;;;;14.64;42.94;102365.00;5054449;28;45490;-74
2022/03/27 07:18:56;;;;;;;;;30.25;27.50;;;;;14.68;42.24;102385.56;5053678;28;46541;-73
2022/03/27 07:21:22;;;;;;;;;24.25;24.00;;;;;14.62;42.50;102369.59;5053851;28;46046;-76
2022/03/27 07:23:47;;;;;;;;;36.25;32.25;;;;;14.53;42.94;102351.03;5053781;28;45478;-76
2022/03/27 07:26:13;;;;;;;;;31.50;29.50;;;;;14.74;42.30;102382.63;5054693;28;45864;-73
2022/03/27 07:28:38;;;;;;;;;30.50;27.75;;;;;14.74;42.21;102379.03;5053702;28;45551;-77
2022/03/27 07:31:04;;;;;;;;;26.00;24.00;;;;;14.73;42.01;102364.66;5053861;28;46621;-77
2022/03/27 07:33:29;;;;;;;;;37.75;32.50;;;;;14.81;42.05;102377.88;5053871;28;45303;-80
2022/03/27 07:35:55;;;;;;;;;35.50;24.50;;;;;14.90;42.43;102382.94;5053822;28;45926;-76
2022/03/27 07:38:20;;;;;;;;;36.25;30.25;;;;;14.89;41.82;102374.88;5054018;28;45543;-71
2022/03/27 07:40:47;;;;;;;;;30.25;28.75;;;;;14.96;42.05;102376.44;5053854;28;45999;-71
2022/03/27 07:43:13;;;;;;;;;28.75;27.25;;;;;15.03;41.95;102389.63;5053767;28;45256;-75
2022/03/27 07:45:38;;;;;;;;;34.00;28.75;;;;;15.03;41.83;102384.25;5054953;28;45481;-73
2022/03/27 07:48:04;;;;;;;;;42.25;28.00;;;;;15.01;41.60;102383.41;5053198;28;45528;-77
2022/03/27 07:50:31;;;;;;;;;33.25;28.75;;;;;15.08;41.86;102387.63;5053304;28;45942;-77
2022/03/27 07:52:56;;;;;;;;;35.25;27.50;;;;;15.09;41.80;102386.69;5054135;28;45355;-77
2022/03/27 07:55:22;;;;;;;;;33.50;28.00;;;;;15.09;41.56;102381.28;5054880;28;45308;-76
2022/03/27 07:57:48;;;;;;;;;32.75;28.75;;;;;15.04;41.75;102360.81;5054703;28;45435;-73
2022/03/27 08:00:15;;;;;;;;;34.75;28.25;;;;;15.25;41.30;102399.59;5054225;28;46137;-76
2022/03/27 08:02:42;;;;;;;;;28.25;28.25;;;;;15.26;41.55;102394.16;5053598;28;45313;-73
2022/03/27 08:05:08;;;;;;;;;37.00;27.25;;;;;15.26;41.28;102399.56;5054246;28;45496;-73
2022/03/27 08:07:34;;;;;;;;;28.00;27.25;;;;;15.13;41.30;102368.56;5056956;28;45658;-73
2022/03/27 08:10:00;;;;;;;;;35.00;28.00;;;;;15.31;41.47;102393.97;5057014;28;45889;-73
2022/03/27 08:12:26;;;;;;;;;34.00;28.25;;;;;15.31;41.45;102389.44;5057101;28;45380;-75
2022/03/27 08:14:51;;;;;;;;;30.75;29.50;;;;;15.19;40.54;102376.41;5038748;28;45275;-72
2022/03/27 08:17:16;;;;;;;;;33.75;28.75;;;;;15.35;41.46;102395.59;5056591;28;45449;-73
2022/03/27 08:19:43;;;;;;;;;32.50;28.00;;;;;15.35;41.00;102385.69;5056789;28;45430;-74
2022/03/27 08:22:09;;;;;;;;;35.00;32.00;;;;;15.40;40.53;102404.41;5056780;28;45414;-72
2022/03/27 08:24:35;;;;;;;;;36.00;26.75;;;;;15.46;40.75;102405.06;5057355;28;45409;-74
2022/03/27 08:27:02;;;;;;;;;31.00;25.50;;;;;15.46;40.27;102380.72;5056573;28;45482;-74
2022/03/27 08:29:33;;;;;;;;;34.50;29.25;;;;;15.59;40.18;102399.19;5056787;28;45974;-74
2022/03/27 08:32:01;;;;;;;;;34.50;29.75;;;;;15.59;40.42;102397.34;5056424;28;45437;-73
2022/03/27 08:34:31;;;;;;;;;33.75;29.00;;;;;15.63;40.37;102396.31;5056882;28;45224;-73
2022/03/27 08:36:58;;;;;;;;;34.00;28.25;;;;;15.68;40.58;102396.97;5056638;28;45316;-75
2022/03/27 08:39:25;;;;;;;;;33.00;28.75;;;;;15.67;40.06;102370.00;5057001;28;46321;-74
2022/03/27 08:41:54;;;;;;;;;33.00;31.00;;;;;15.77;40.04;102383.09;5038629;28;45461;-76
2022/03/27 08:44:20;;;;;;;;;37.00;30.75;;;;;15.81;40.33;102386.56;5056971;28;45390;-75
2022/03/27 08:46:48;;;;;;;;;31.75;27.50;;;;;15.82;39.60;102381.06;5056405;28;45599;-75
2022/03/27 08:50:04;;;;;;;;;28.75;28.50;;;;;15.92;39.23;102381.56;5056281;28;45332;-74
2022/03/27 08:52:52;;;;;;;;;36.50;28.75;;;;;15.92;39.80;102381.56;4994072;28;45363;-74
2022/03/27 08:55:20;;;;;;;;;34.50;29.25;;;;;15.72;39.18;102333.75;5053071;28;45470;-74
2022/03/27 08:57:53;;;;;;;;;33.75;26.75;;;;;16.08;39.19;102387.19;5056267;28;45351;-74
2022/03/27 09:00:21;;;;;;;;;36.00;27.00;;;;;16.12;39.12;102386.13;5056593;28;45224;-76
2022/03/27 09:02:47;;;;;;;;;26.75;25.25;;;;;15.89;39.25;102341.13;5038083;28;45464;-77
2022/03/27 09:05:13;;;;;;;;;34.75;29.25;;;;;16.15;39.39;102373.38;5056013;28;45394;-74
2022/03/27 09:07:39;;;;;;;;;29.75;27.25;;;;;16.26;39.13;102389.13;5055564;28;45417;-74
2022/03/27 09:10:08;;;;;;;;;36.75;33.25;;;;;16.27;38.32;102389.06;5062548;28;45310;-74
2022/03/27 09:12:35;;;;;;;;;25.00;20.00;;;;;16.41;38.40;102398.41;5039083;28;45509;-75
2022/03/27 09:15:01;;;;;;;;;30.25;26.00;;;;;16.44;37.80;102400.97;5052759;28;45454;-74
2022/03/27 09:17:27;;;;;;;;;25.00;23.25;;;;;16.50;38.56;102400.72;5049816;28;45543;-77
2022/03/27 09:19:52;;;;;;;;;27.50;25.50;;;;;16.50;38.31;102390.72;5057572;28;45371;-75
2022/03/27 09:22:29;;;;;;;;;28.25;26.50;;;;;16.52;38.09;102385.25;5053311;28;45386;-77
2022/03/27 09:25:00;;;;;;;;;36.75;31.25;;;;;16.64;37.58;102392.88;5049496;28;45504;-80
2022/03/27 09:27:30;;;;;;;;;27.00;20.75;;;;;16.67;37.49;102397.28;5051430;28;45518;-75
2022/03/27 09:30:00;;;;;;;;;35.75;27.75;;;;;16.74;37.43;102405.06;5055058;28;45540;-74
2022/03/27 09:32:30;;;;;;;;;28.75;26.75;;;;;16.75;37.53;102390.56;5052996;28;45314;-75
2022/03/27 09:35:02;;;;;;;;;33.00;29.50;;;;;16.85;37.79;102399.13;5054115;28;46647;-74
2022/03/27 09:37:30;;;;;;;;;29.75;29.25;;;;;16.90;37.58;102399.81;5053284;28;45578;-73
2022/03/27 09:39:56;;;;;;;;;34.00;29.00;;;;;16.94;38.05;102396.88;5055834;28;45359;-75
2022/03/27 09:42:22;;;;;;;;;26.50;23.50;;;;;17.04;37.86;102402.75;5034340;28;45360;-76
2022/03/27 09:44:48;;;;;;;;;20.75;20.75;;;;;16.98;37.40;102375.97;5052876;28;45368;-75
2022/03/27 09:47:13;;;;;;;;;32.25;27.00;;;;;17.08;37.04;102401.69;5055366;28;45475;-73
2022/03/27 09:49:40;;;;;;;;;16.00;12.25;;;;;17.11;37.67;102401.53;5036383;28;46512;-75
2022/03/27 09:52:08;;;;;;;;;25.75;21.50;;;;;17.14;37.54;102395.97;5055402;28;45398;-74
2022/03/27 09:54:53;;;;;;;;;31.00;26.00;;;;;17.17;37.25;102395.84;5055666;28;45485;-75
2022/03/27 09:57:39;;;;;;;;;27.25;22.50;;;;;17.21;37.44;102393.84;5055339;28;45491;-74
2022/03/27 10:00:07;;;;;;;;;31.50;24.75;;;;;17.26;37.23;102392.69;5036547;28;46513;-73
2022/03/27 10:02:33;;;;;;;;;27.75;24.00;;;;;17.31;36.89;102396.06;5055336;28;45285;-77
2022/03/27 10:05:08;;;;;;;;;33.50;30.75;;;;;17.34;36.71;102393.22;5055806;28;45406;-76
2022/03/27 10:07:36;;;;;;;;;39.25;28.75;;;;;17.37;36.72;102387.63;5056138;28;45285;-75
2022/03/27 10:10:04;;;;;;;;;35.75;25.50;;;;;17.41;36.90;102391.06;5055794;28;45468;-74
2022/03/27 10:12:31;;;;;;;;;31.75;28.75;;;;;17.46;36.48;102386.28;5055290;28;45355;-77
2022/03/27 10:15:03;;;;;;;;;30.50;24.50;;;;;17.52;37.12;102385.13;5055519;28;45390;-74
2022/03/27 10:17:31;;;;;;;;;28.75;26.75;;;;;17.57;36.90;102381.22;5055349;28;45318;-75
2022/03/27 10:20:04;;;;;;;;;32.50;27.75;;;;;17.53;36.24;102357.03;5055187;28;46098;-74
2022/03/27 10:22:31;;;;;;;;;33.00;24.50;;;;;17.61;36.07;102360.25;5054757;28;45316;-74
2022/03/27 10:25:01;;;;;;;;;34.75;26.25;;;;;17.67;37.24;102365.41;5055125;28;45487;-75
2022/03/27 10:27:30;;;;;;;;;27.75;26.50;;;;;17.76;36.65;102363.13;5054425;28;45894;-73
2022/03/27 10:29:57;;;;;;;;;25.75;25.00;;;;;17.84;37.91;102367.28;5055083;28;46030;-73
2022/03/27 10:32:24;;;;;;;;;36.25;28.25;;;;;17.82;36.44;102344.78;5054764;28;45520;-73
2022/03/27 10:35:05;;;;;;;;;29.00;24.25;;;;;17.95;36.60;102360.34;5054638;28;45632;-75
2022/03/27 10:37:44;;;;;;;;;33.25;28.25;;;;;17.92;36.00;102344.25;5055295;28;45410;-73
2022/03/27 10:40:29;;;;;;;;;36.00;30.75;;;;;18.01;35.70;102349.19;5054588;28;45446;-79
2022/03/27 10:43:05;;;;;;;;;49.25;36.50;;;;;18.06;36.07;102344.41;5054643;28;45340;-75
2022/03/27 10:45:32;;;;;;;;;34.75;30.00;;;;;18.10;35.13;102343.28;5054991;28;45315;-72
2022/03/27 10:48:20;;;;;;;;;36.75;32.00;;;;;18.22;35.68;102346.31;5054117;28;45519;-73
2022/03/27 10:50:45;;;;;;;;;38.00;29.50;;;;;18.29;35.84;102339.63;5054259;28;45761;-74
2022/03/27 10:53:11;;;;;;;;;34.00;27.75;;;;;18.35;35.19;102340.16;5054435;28;45989;-74
2022/03/27 10:55:41;;;;;;;;;29.00;26.50;;;;;18.37;35.79;102335.50;5054750;28;45350;-74
2022/03/27 10:58:29;;;;;;;;;32.25;30.50;;;;;18.48;35.55;102330.38;5054268;28;45531;-74
2022/03/27 11:00:54;;;;;;;;;37.50;30.25;;;;;18.56;34.85;102324.53;5054221;28;45539;-73
2022/03/27 11:03:43;;;;;;;;;39.25;28.75;;;;;18.66;34.56;102325.84;5054551;28;45876;-74
2022/03/27 11:06:44;;;;;;;;;30.50;27.25;;;;;18.67;34.30;102316.72;5052736;28;45346;-75
2022/03/27 11:09:30;;;;;;;;;28.25;25.50;;;;;18.83;34.45;102328.50;5054298;28;46600;-75
2022/03/27 11:11:57;;;;;;;;;30.00;26.25;;;;;18.69;34.34;102279.50;5054310;28;45429;-76
2022/03/27 11:14:42;;;;;;;;;32.25;25.50;;;;;19.11;33.89;102314.25;5054243;28;45267;-81
2022/03/27 11:17:12;;;;;;;;;32.50;25.25;;;;;19.28;33.58;102306.00;5054150;28;45617;-77
2022/03/27 11:19:43;;;;;;;;;32.50;27.25;;;;;19.51;33.34;102312.88;5054416;28;45326;-75
2022/03/27 11:22:43;;;;;;;;;34.25;24.75;;;;;19.76;32.26;102303.25;5054334;28;45284;-77
2022/03/27 11:25:25;;;;;;;;;22.25;20.75;;;;;19.97;32.04;102307.41;5029479;28;45503;-72
2022/03/27 11:28:03;;;;;;;;;27.25;24.75;;;;;20.18;32.10;102303.38;5052229;28;45317;-74
2022/03/27 11:30:29;;;;;;;;;23.50;21.25;;;;;20.43;31.71;102310.94;5053840;28;45405;-74
2022/03/27 11:33:21;;;;;;;;;34.75;29.00;;;;;20.71;31.12;102304.63;5054163;28;45640;-77
2022/03/27 11:36:04;;;;;;;;;31.25;27.50;;;;;20.99;30.73;102311.94;5039413;28;45366;-74
2022/03/27 11:38:52;;;;;;;;;30.25;27.50;;;;;21.23;29.56;102302.16;5051115;28;45508;-78
2022/03/27 11:41:22;;;;;;;;;30.75;26.75;;;;;21.46;28.96;102301.50;5045990;28;45511;-77
2022/03/27 11:43:47;;;;;;;;;34.00;29.75;;;;;21.65;28.49;102290.22;5055996;28;45405;-77
2022/03/27 11:46:25;;;;;;;;;28.00;25.00;;;;;21.90;28.29;102290.31;5055807;28;45267;-75
2022/03/27 11:48:54;;;;;;;;;33.25;26.75;;;;;22.34;27.97;102299.16;5055725;28;45322;-78
2022/03/27 11:51:20;;;;;;;;;33.50;28.75;;;;;22.73;27.34;102289.94;5057077;28;45496;-75
2022/03/27 11:53:46;;;;;;;;;31.25;24.00;;;;;23.11;27.24;102287.16;5057786;28;45466;-76
2022/03/27 11:56:11;;;;;;;;;31.25;25.00;;;;;23.43;26.15;102263.72;5056807;28;45438;-79
2022/03/27 11:58:38;;;;;;;;;26.00;24.25;;;;;23.92;25.69;102284.63;5057313;28;45357;-75
2022/03/27 12:01:09;;;;;;;;;35.75;29.00;;;;;24.34;25.70;102289.50;5057036;28;45599;-78
2022/03/27 12:03:36;;;;;;;;;31.25;27.75;;;;;24.34;24.84;102280.41;5056523;28;45469;-78
2022/03/27 12:06:10;;;;;;;;;32.75;27.75;;;;;24.17;25.58;102286.31;5056716;28;45385;-76
2022/03/27 12:08:38;;;;;;;;;36.00;28.75;;;;;24.09;25.32;102282.31;5057405;28;45411;-77
2022/03/27 12:11:07;;;;;;;;;28.50;27.00;;;;;24.08;25.17;102285.19;5057048;28;45556;-77
2022/03/27 12:13:43;;;;;;;;;29.50;28.50;;;;;24.08;24.64;102266.00;5056890;28;45540;-75
2022/03/27 12:16:23;;;;;;;;;32.50;29.75;;;;;24.11;24.69;102265.75;5057449;28;45548;-75
2022/03/27 12:18:50;;;;;;;;;33.25;28.50;;;;;24.22;24.15;102251.25;5056934;28;45571;-76
2022/03/27 12:21:20;;;;;;;;;20.25;16.00;;;;;24.37;24.16;102259.13;5056736;28;45458;-79
2022/03/27 12:23:49;;;;;;;;;35.75;30.75;;;;;24.78;24.00;102279.56;5053813;28;46135;-76
2022/03/27 12:29:42;;;;;;;;;30.50;26.50;;;;;25.58;22.18;102253.63;5056656;28;45306;-76
2022/03/27 12:32:15;;;;;;;;;28.25;22.50;;;;;26.47;22.07;102259.66;5056573;28;45568;-74
2022/03/27 12:34:46;;;;;;;;;40.50;30.00;;;;;27.16;20.34;102241.41;5056911;28;45245;-77
2022/03/27 12:37:16;;;;;;;;;29.00;24.25;;;;;27.94;18.99;102245.09;5056852;28;45414;-77
2022/03/27 12:39:50;;;;;;;;;31.25;26.50;;;;;28.84;17.45;102248.22;5056907;28;45480;-76
2022/03/27 12:42:36;;;;;;;;;33.25;28.00;;;;;29.61;16.52;102240.31;5056533;28;45240;-76
2022/03/27 12:45:08;;;;;;;;;30.00;28.25;;;;;30.38;15.67;102242.34;5056637;28;45533;-76
2022/03/27 12:47:58;;;;;;;;;28.50;25.50;;;;;30.97;15.20;102232.28;5035046;28;46006;-76
2022/03/27 12:50:34;;;;;;;;;28.75;25.75;;;;;31.58;15.14;102236.63;5034070;28;45423;-77
2022/03/27 12:53:23;;;;;;;;;18.75;11.00;;;;;32.35;15.22;102226.94;5038775;28;47958;-77
2022/03/27 12:55:56;;;;;;;;;30.50;23.00;;;;;32.95;14.54;102227.28;5056043;28;46430;-78
2022/03/27 12:58:37;;;;;;;;;22.50;22.50;;;;;33.55;14.21;102215.47;5056643;28;45366;-78
2022/03/27 13:01:23;;;;;;;;;30.50;25.00;;;;;34.27;13.83;102224.28;5038122;28;45281;-77
2022/03/27 13:04:08;;;;;;;;;21.00;16.00;;;;;34.57;12.70;102222.34;5055812;28;45401;-77
2022/03/27 13:06:39;;;;;;;;;23.50;20.50;;;;;34.90;12.11;102214.47;5044844;28;45548;-75
2022/03/27 13:09:08;;;;;;;;;25.25;24.25;;;;;35.18;12.44;102209.03;5056121;28;45247;-77
2022/03/27 13:11:44;;;;;;;;;25.50;25.00;;;;;35.67;12.01;102206.34;5056212;28;45313;-77
2022/03/27 13:14:10;;;;;;;;;25.25;24.25;;;;;36.05;11.69;102201.38;5037996;28;45396;-76
2022/03/27 13:16:42;;;;;;;;;8.00;2.00;;;;;36.41;11.49;102206.78;5056306;28;46276;-77
2022/03/27 13:19:10;;;;;;;;;26.00;23.50;;;;;36.75;11.51;102203.13;5055946;28;45499;-75
2022/03/27 13:21:40;;;;;;;;;28.75;25.50;;;;;37.09;11.05;102194.66;5056007;28;45415;-76
2022/03/27 13:24:13;;;;;;;;;21.50;21.50;;;;;37.33;11.17;102181.22;5056202;28;45522;-74
2022/03/27 13:26:42;;;;;;;;;28.50;25.50;;;;;37.48;10.42;102188.34;5055961;28;45268;-77
2022/03/27 13:29:07;;;;;;;;;9.75;4.00;;;;;37.60;10.52;102191.41;5055838;28;45327;-76
2022/03/27 13:31:35;;;;;;;;;29.25;20.50;;;;;37.74;10.60;102183.88;5055644;28;45488;-76
2022/03/27 13:34:03;;;;;;;;;27.00;23.75;;;;;37.92;10.29;102192.50;5055838;28;45426;-76
2022/03/27 13:36:30;;;;;;;;;25.75;23.50;;;;;37.92;10.17;102163.63;5055069;28;45362;-74
2022/03/27 13:38:55;;;;;;;;;24.75;22.75;;;;;38.23;10.11;102189.03;5056006;28;45284;-76
2022/03/27 13:44:07;;;;;;;;;24.75;21.00;;;;;38.55;10.31;102174.09;5055428;28;46433;-76
2022/03/27 13:46:32;;;;;;;;;24.50;21.75;;;;;38.72;10.34;102182.03;5055957;28;46021;-76
2022/03/27 13:48:58;;;;;;;;;18.75;14.50;;;;;38.72;10.19;102154.00;5037797;28;45453;-78
2022/03/27 13:51:23;;;;;;;;;25.50;23.25;;;;;38.84;9.86;102172.72;5055341;28;45396;-76
2022/03/27 13:53:49;;;;;;;;;27.25;23.50;;;;;38.86;10.10;102161.28;5055562;28;45371;-77
2022/03/27 13:56:15;;;;;;;;;25.50;22.25;;;;;38.95;10.12;102157.16;5055122;28;46082;-75
2022/03/27 13:58:41;;;;;;;;;23.75;21.25;;;;;38.97;9.87;102160.59;5055572;28;45417;-76
2022/03/27 14:01:07;;;;;;;;;24.50;23.50;;;;;39.07;10.09;102160.97;5055046;28;45305;-76
2022/03/27 14:03:32;;;;;;;;;26.00;18.25;;;;;39.06;10.34;102138.75;5053998;28;45651;-77
2022/03/27 14:05:58;;;;;;;;;27.50;24.00;;;;;39.11;9.76;102151.03;5036680;28;46317;-76
2022/03/27 14:08:24;;;;;;;;;26.75;24.75;;;;;39.01;9.89;102146.97;5055352;28;45269;-76
2022/03/27 14:10:50;;;;;;;;;26.50;23.75;;;;;39.00;10.43;102148.94;5055506;28;45176;-75
2022/03/27 14:13:16;;;;;;;;;22.00;18.50;;;;;38.91;10.43;102136.22;5055361;28;45249;-75
2022/03/27 14:15:42;;;;;;;;;29.50;26.00;;;;;38.87;9.75;102144.22;5055019;28;45412;-76
2022/03/27 14:18:07;;;;;;;;;31.00;27.00;;;;;38.91;9.79;102142.69;5055240;28;45303;-76
2022/03/27 14:20:32;;;;;;;;;24.50;19.25;;;;;38.87;10.01;102147.03;5055041;28;45514;-75
2022/03/27 14:22:59;;;;;;;;;24.25;22.50;;;;;38.86;9.76;102138.84;5055067;28;45486;-73
2022/03/27 14:25:25;;;;;;;;;25.50;24.25;;;;;38.78;9.92;102130.69;5054861;28;46516;-77
2022/03/27 14:27:50;;;;;;;;;25.75;22.25;;;;;38.64;10.31;102123.41;5055137;28;45356;-74
2022/03/27 14:30:16;;;;;;;;;20.25;20.25;;;;;38.65;10.07;102133.53;5054930;28;45380;-76
2022/03/27 14:32:46;;;;;;;;;0.50;0.50;;;;;38.60;10.27;102125.81;5054786;28;46029;-75
2022/03/27 14:35:13;;;;;;;;;33.75;25.00;;;;;38.19;10.49;102107.41;5054288;28;45520;-74
2022/03/27 14:37:38;;;;;;;;;24.25;22.75;;;;;38.17;10.41;102122.69;5054931;28;45386;-76
2022/03/27 14:40:06;;;;;;;;;25.00;23.25;;;;;38.04;10.95;102109.53;5054887;28;45432;-75
2022/03/27 14:42:31;;;;;;;;;20.00;18.50;;;;;38.14;11.17;102126.78;5054765;28;46210;-77
2022/03/27 14:44:58;;;;;;;;;24.25;20.75;;;;;37.95;11.14;102109.97;5054980;28;45514;-75
2022/03/27 14:47:26;;;;;;;;;24.25;21.25;;;;;37.92;11.22;102116.03;5054749;28;45409;-77
2022/03/27 14:49:52;;;;;;;;;29.50;25.25;;;;;37.72;11.03;102104.84;5054623;28;45418;-76
2022/03/27 14:52:18;;;;;;;;;28.00;24.25;;;;;37.79;11.01;102112.16;5054382;28;45171;-75
2022/03/27 14:57:29;;;;;;;;;23.50;22.50;;;;;37.46;10.78;102105.69;5054624;28;45385;-74
2022/03/27 14:59:55;;;;;;;;;25.75;23.75;;;;;37.39;10.93;102107.63;5054771;28;45283;-78
2022/03/27 15:02:20;;;;;;;;;25.50;20.00;;;;;37.20;11.05;102098.13;5054555;28;45280;-76
2022/03/27 15:04:48;;;;;;;;;25.25;19.00;;;;;37.12;10.60;102098.31;5054211;28;45778;-78
2022/03/27 15:07:14;;;;;;;;;18.75;16.75;;;;;36.95;10.71;102097.84;5054406;28;45337;-76
2022/03/27 15:09:40;;;;;;;;;28.50;22.75;;;;;36.72;11.11;102106.59;5054612;28;45326;-76
2022/03/27 15:12:07;;;;;;;;;18.75;17.25;;;;;36.59;10.94;102089.75;5054402;28;45368;-75
2022/03/27 15:14:33;;;;;;;;;29.75;25.75;;;;;36.48;11.00;102101.53;5052944;28;45278;-76
2022/03/27 15:16:58;;;;;;;;;23.50;19.00;;;;;36.43;11.44;102098.50;5054141;28;45478;-76
2022/03/27 15:19:24;;;;;;;;;28.25;22.50;;;;;36.46;11.64;102102.81;5054656;28;45438;-75
2022/03/27 15:21:49;;;;;;;;;22.50;18.75;;;;;36.48;11.37;102098.75;5053920;28;45279;-76
2022/03/27 15:24:14;;;;;;;;;28.00;22.00;;;;;36.37;11.44;102089.03;5054264;28;45482;-76
2022/03/27 15:26:40;;;;;;;;;23.00;20.75;;;;;36.29;11.39;102088.34;5035693;28;45427;-76
2022/03/27 15:29:05;;;;;;;;;27.75;20.75;;;;;36.10;11.47;102092.69;5054566;28;45463;-76
2022/03/27 15:31:31;;;;;;;;;24.25;21.25;;;;;36.02;11.35;102096.53;5053999;28;45355;-73